Viroqua, Wisconsin
Current Conditions -  °F | °C
As of 7:15 PM on Tuesday 21 Oct 2014 (Local Time) from KY51 Reporting Station
Clear Clear  
Wind Chill: 42°   Ceiling: Unl
Heat Index: 44°   Visibility: 10mi
Dew Point: 36°   Wind: 5mph
Humidity: 73%   Direction: 120°ESE
Pressure: 30.22"   Gusts: NA
Location:  43.56°N, 90.89°W
Report Text: KY51 220015Z AUTO 12004KT 10SM CLR 07/02 A3022 RMK AO1 T00670021
Loading
Personal Weather Stations






























Interactive Weather Map
Tropical Storm Tracking
New forecast layout! Learn more

10-Day Weather Forecast

Advertisements
Track Severe Weather on mobile